Time;durP1;ratioP1;P1;durP2;ratioP2;P2;SDS_P1;SDS_P2;PMS_P1;PMS_P2;Temp;Humidity;BMP_temperature;BMP_pressure;BME280_temperature;BME280_humidity;BME280_pressure;Samples;Min_cycle;Max_cycle;Signal;HPM_P1;HPM_P2
2022/08/14 00:01:24;;;;;;;11.40;4.30;;;25.70;99.90;;;;;;6303315;22;20006;-84
2022/08/14 00:03:49;;;;;;;8.80;4.15;;;25.70;99.90;;;;;;6302334;22;20007;-83
2022/08/14 00:06:15;;;;;;;8.50;4.28;;;25.70;99.90;;;;;;6302324;22;20497;-86
2022/08/14 00:08:41;;;;;;;7.60;4.38;;;25.70;99.90;;;;;;6302244;22;20447;-85
2022/08/14 00:11:07;;;;;;;6.85;4.78;;;25.50;99.90;;;;;;6302269;22;20071;-84
2022/08/14 00:13:34;;;;;;;9.13;4.35;;;25.20;99.90;;;;;;6302220;22;19999;-84
2022/08/14 00:16:01;;;;;;;6.35;3.78;;;25.50;99.90;;;;;;6302413;22;20000;-83
2022/08/14 00:18:28;;;;;;;10.57;3.88;;;25.40;99.90;;;;;;6275213;22;20004;-83
2022/08/14 00:20:56;;;;;;;5.82;3.72;;;25.30;99.90;;;;;;6303056;22;19999;-81
2022/08/14 00:23:22;;;;;;;7.50;3.63;;;25.20;99.90;;;;;;6302805;22;20039;-84
2022/08/14 00:25:51;;;;;;;5.30;3.60;;;25.10;99.90;;;;;;6302162;22;20000;-87
2022/08/14 00:28:18;;;;;;;4.07;3.10;;;25.00;99.90;;;;;;6302135;22;20003;-83
2022/08/14 00:30:45;;;;;;;7.35;3.28;;;25.00;99.90;;;;;;6302094;22;19999;-84
2022/08/14 00:33:11;;;;;;;4.35;3.35;;;25.00;99.90;;;;;;6302286;22;20002;-84
2022/08/14 00:35:37;;;;;;;7.80;3.45;;;24.80;99.90;;;;;;6303359;22;20004;-84
2022/08/14 00:38:03;;;;;;;8.10;4.32;;;24.80;99.90;;;;;;6304097;22;19996;-87
2022/08/14 00:40:28;;;;;;;10.68;4.57;;;24.60;99.90;;;;;;6304329;22;20074;-82
2022/08/14 00:42:54;;;;;;;5.72;4.00;;;24.80;99.90;;;;;;6304613;22;20086;-91
2022/08/14 00:45:20;;;;;;;5.82;4.13;;;24.90;99.90;;;;;;6276613;22;20007;-84
2022/08/14 00:47:47;;;;;;;12.25;5.13;;;24.80;99.90;;;;;;6303797;22;20321;-88
2022/08/14 00:50:17;;;;;;;8.57;4.43;;;24.80;99.90;;;;;;6303924;22;20427;-87
2022/08/14 00:52:44;;;;;;;9.30;5.43;;;24.80;99.90;;;;;;6303799;22;19999;-83
2022/08/14 00:55:11;;;;;;;8.70;5.22;;;24.80;99.90;;;;;;6276415;22;20014;-83
2022/08/14 00:57:38;;;;;;;9.43;5.20;;;24.80;99.90;;;;;;6303480;22;20340;-83
2022/08/14 01:00:13;;;;;;;10.75;5.38;;;24.90;99.90;;;;;;6303992;22;20002;-83
2022/08/14 01:02:43;;;;;;;7.95;5.53;;;24.80;99.90;;;;;;6303897;22;20015;-84
2022/08/14 01:05:22;;;;;;;9.70;5.30;;;24.70;99.90;;;;;;6303642;22;20003;-84
2022/08/14 01:07:56;;;;;;;7.65;5.45;;;24.80;99.90;;;;;;6303579;22;20431;-83
2022/08/14 01:10:49;;;;;;;7.57;5.47;;;24.60;99.90;;;;;;6303845;22;19995;-83
2022/08/14 01:13:09;;;;;;;7.05;5.15;;;24.60;99.90;;;;;;6303550;22;20534;-83
2022/08/14 01:15:35;;;;;;;7.90;5.60;;;24.70;99.90;;;;;;6303976;22;20049;-84
2022/08/14 01:21:05;;;;;;;7.72;4.80;;;24.60;99.90;;;;;;6303400;22;20011;-83
2022/08/14 01:23:33;;;;;;;10.13;4.93;;;24.40;99.90;;;;;;6304547;22;20011;-83
2022/08/14 01:25:59;;;;;;;7.25;4.90;;;24.50;99.90;;;;;;6304422;22;20023;-84
2022/08/14 01:28:25;;;;;;;8.32;4.72;;;24.50;99.90;;;;;;6303271;22;20003;-90
2022/08/14 01:30:56;;;;;;;7.63;4.70;;;24.60;99.90;;;;;;6303274;22;20264;-84
2022/08/14 01:33:28;;;;;;;6.88;4.55;;;24.50;99.90;;;;;;6303682;22;20074;-83
2022/08/14 01:35:59;;;;;;;13.00;4.50;;;24.50;99.90;;;;;;6303533;22;20003;-90
2022/08/14 01:38:27;;;;;;;5.70;4.95;;;24.50;99.90;;;;;;6303303;22;20435;-89
2022/08/14 01:40:52;;;;;;;10.40;4.35;;;24.60;99.90;;;;;;6303278;22;20117;-84
2022/08/14 01:43:18;;;;;;;7.15;4.80;;;24.60;99.90;;;;;;6303156;22;20039;-84
2022/08/14 01:45:44;;;;;;;10.30;4.93;;;24.60;99.90;;;;;;6303258;22;20045;-83
2022/08/14 01:48:10;;;;;;;11.73;5.38;;;24.50;99.90;;;;;;6302913;22;20102;-83
2022/08/14 01:50:36;;;;;;;12.38;4.63;;;24.50;99.90;;;;;;6303254;22;19999;-84
2022/08/14 01:53:02;;;;;;;10.45;5.30;;;24.30;99.90;;;;;;6304169;22;20078;-83
2022/08/14 01:55:30;;;;;;;8.88;4.75;;;24.40;99.90;;;;;;6304079;22;20007;-83
2022/08/14 01:57:57;;;;;;;9.93;5.20;;;24.50;99.90;;;;;;6303002;22;20002;-83
2022/08/14 02:00:23;;;;;;;10.40;4.93;;;24.50;99.90;;;;;;6303190;22;20500;-87
2022/08/14 02:02:48;;;;;;;9.55;4.72;;;24.50;99.90;;;;;;6303000;22;20021;-83
2022/08/14 02:05:14;;;;;;;8.13;5.15;;;24.60;99.90;;;;;;6302968;22;20394;-91
2022/08/14 02:07:42;;;;;;;9.68;4.80;;;24.50;99.90;;;;;;6303147;22;20007;-84
2022/08/14 02:10:10;;;;;;;10.93;5.10;;;24.50;99.90;;;;;;6302980;22;19995;-85
2022/08/14 02:12:36;;;;;;;9.52;4.93;;;24.50;99.90;;;;;;6302874;22;19999;-90
2022/08/14 02:15:04;;;;;;;10.82;4.70;;;24.50;99.90;;;;;;6304099;22;19995;-83
2022/08/14 02:17:32;;;;;;;7.57;4.80;;;24.70;99.90;;;;;;6276611;22;19999;-83
2022/08/14 02:19:58;;;;;;;8.20;4.38;;;24.50;99.90;;;;;;6303750;22;20310;-83
2022/08/14 02:22:24;;;;;;;9.77;4.78;;;24.50;99.90;;;;;;6302819;22;20018;-83
2022/08/14 02:24:50;;;;;;;9.25;5.15;;;24.40;99.90;;;;;;6303080;22;20010;-84
2022/08/14 02:27:17;;;;;;;10.52;4.82;;;24.20;99.90;;;;;;6306231;22;20073;-83
2022/08/14 02:29:43;;;;;;;6.88;4.65;;;24.30;99.90;;;;;;6306586;22;20022;-82
2022/08/14 02:32:10;;;;;;;14.27;5.32;;;24.20;99.90;;;;;;6306900;22;20339;-84
2022/08/14 02:34:37;;;;;;;18.13;5.78;;;24.10;99.90;;;;;;6304463;22;20021;-82
2022/08/14 02:37:11;;;;;;;22.93;6.30;;;24.00;99.90;;;;;;6304588;22;20079;-83
2022/08/14 02:39:43;;;;;;;13.75;6.10;;;23.90;99.90;;;;;;6275248;22;20009;-84
2022/08/14 02:42:11;;;;;;;12.65;6.43;;;23.70;99.90;;;;;;6302773;22;20003;-82
2022/08/14 02:44:38;;;;;;;14.90;6.32;;;23.60;99.90;;;;;;6302729;22;20056;-83
2022/08/14 02:47:04;;;;;;;10.80;4.93;;;23.40;99.90;;;;;;6303679;22;20029;-83
2022/08/14 02:49:30;;;;;;;12.05;5.20;;;23.10;99.90;;;;;;6276071;22;20015;-83
2022/08/14 02:51:57;;;;;;;11.38;4.88;;;22.90;99.90;;;;;;6302461;22;20014;-82
2022/08/14 02:54:25;;;;;;;9.82;5.05;;;22.50;99.90;;;;;;6302754;22;20104;-84
2022/08/14 02:56:53;;;;;;;;;;;22.20;99.90;;;;;;6303112;22;20086;-83
2022/08/14 02:59:19;;;;;;;9.70;5.25;;;22.00;99.90;;;;;;6302460;22;19898;-88
2022/08/14 03:01:45;;;;;;;7.10;4.63;;;22.00;99.90;;;;;;6275060;22;20016;-84
2022/08/14 03:04:14;;;;;;;10.10;5.40;;;22.10;99.90;;;;;;6275062;22;20058;-88
2022/08/14 03:06:42;;;;;;;7.07;5.30;;;22.10;99.90;;;;;;6275251;22;20003;-84
2022/08/14 03:09:13;;;;;;;;;;;22.30;99.90;;;;;;6303625;22;19995;-83
2022/08/14 03:11:41;;;;;;;8.75;5.68;;;22.40;99.90;;;;;;6302566;22;20286;-83
2022/08/14 03:14:08;;;;;;;9.45;5.72;;;22.40;99.90;;;;;;6302471;22;20000;-83
2022/08/14 03:16:34;;;;;;;9.00;5.70;;;22.50;99.90;;;;;;6303389;22;20021;-87
2022/08/14 03:19:02;;;;;;;11.07;5.20;;;22.50;99.90;;;;;;6274888;22;20448;-83
2022/08/14 03:21:31;;;;;;;11.20;5.40;;;22.60;99.90;;;;;;6302535;22;20007;-83
2022/08/14 03:24:08;;;;;;;7.35;5.40;;;22.60;99.90;;;;;;6302360;22;20068;-83
2022/08/14 03:26:35;;;;;;;9.73;5.82;;;22.60;99.90;;;;;;6303081;22;20007;-84
2022/08/14 03:29:01;;;;;;;9.57;5.20;;;22.60;99.90;;;;;;6302300;22;20010;-84
2022/08/14 03:31:27;;;;;;;9.68;5.63;;;22.60;99.90;;;;;;6302423;22;20319;-84
2022/08/14 03:33:53;;;;;;;8.63;5.05;;;22.60;99.90;;;;;;6302152;22;20004;-83
2022/08/14 03:36:21;;;;;;;14.90;4.93;;;22.60;99.90;;;;;;6302448;22;20419;-85
2022/08/14 03:38:49;;;;;;;10.52;4.63;;;22.60;99.90;;;;;;6302502;22;20075;-84
2022/08/14 03:41:22;;;;;;;9.70;4.45;;;22.50;99.90;;;;;;6302261;22;20003;-86
2022/08/14 03:43:57;;;;;;;11.20;4.68;;;22.40;99.90;;;;;;6301943;22;20344;-89
2022/08/14 03:46:26;;;;;;;10.60;4.57;;;22.40;99.90;;;;;;6302391;22;20022;-82
2022/08/14 03:48:53;;;;;;;13.13;5.30;;;22.30;99.90;;;;;;6300677;22;20013;-88
2022/08/14 03:51:20;;;;;;;9.10;5.10;;;22.10;99.90;;;;;;6302521;22;20006;-87
2022/08/14 03:53:47;;;;;;;15.32;5.72;;;22.20;99.90;;;;;;6302660;22;20090;-91
2022/08/14 03:56:15;;;;;;;10.88;5.40;;;22.30;99.90;;;;;;6302687;22;20335;-81
2022/08/14 03:58:45;;;;;;;9.32;5.10;;;22.20;99.90;;;;;;6301479;22;20007;-81
2022/08/14 04:01:12;;;;;;;11.77;5.72;;;22.10;99.90;;;;;;6301892;22;20470;-84
2022/08/14 04:03:38;;;;;;;10.57;5.40;;;22.10;99.90;;;;;;6303651;22;20018;-84
2022/08/14 04:06:07;;;;;;;11.25;6.35;;;22.10;99.90;;;;;;6303620;22;20011;-91
2022/08/14 04:08:41;;;;;;;10.93;5.80;;;22.00;99.90;;;;;;6302378;22;20099;-86
2022/08/14 04:11:08;;;;;;;10.18;6.38;;;22.00;99.90;;;;;;6304988;22;20010;-85
2022/08/14 04:13:38;;;;;;;11.75;6.07;;;21.90;99.90;;;;;;6305938;22;20023;-84
2022/08/14 04:16:07;;;;;;;13.35;6.35;;;21.90;99.90;;;;;;6304807;22;20003;-83
2022/08/14 04:18:38;;;;;;;13.95;6.68;;;21.70;99.90;;;;;;6304174;22;20003;-88
2022/08/14 04:21:04;;;;;;;11.48;6.32;;;21.60;99.90;;;;;;6304661;22;20022;-90
2022/08/14 04:23:32;;;;;;;11.75;6.28;;;21.50;99.90;;;;;;6276399;22;20014;-90
2022/08/14 04:25:59;;;;;;;13.25;5.95;;;21.60;99.90;;;;;;6304416;22;19995;-89
2022/08/14 04:28:25;;;;;;;10.43;5.77;;;21.50;99.90;;;;;;6277436;22;20003;-88
2022/08/14 04:30:51;;;;;;;12.20;6.03;;;21.50;99.90;;;;;;6304963;22;20229;-90
2022/08/14 04:33:16;;;;;;;12.05;5.90;;;21.40;99.90;;;;;;6254211;22;20011;-89
2022/08/14 04:35:42;;;;;;;12.68;6.20;;;21.40;99.90;;;;;;6305554;22;20444;-88
2022/08/14 04:43:39;;;;;;;10.90;5.47;;;21.50;99.90;;;;;;6304693;22;20022;-84
2022/08/14 04:46:11;;;;;;;283.20;122.82;;;21.60;99.90;;;;;;6276245;22;20006;-86
2022/08/14 04:48:37;;;;;;;11.00;6.28;;;21.40;99.90;;;;;;6304652;22;20034;-84
2022/08/14 04:51:05;;;;;;;369.33;172.40;;;21.40;99.90;;;;;;6276247;22;20033;-86
2022/08/14 04:53:33;;;;;;;202.38;18.80;;;21.30;99.90;;;;;;6304140;22;20014;-85
2022/08/14 04:55:59;;;;;;;12.65;5.80;;;21.30;99.90;;;;;;6303592;22;20006;-85
2022/08/14 04:58:27;;;;;;;10.10;5.05;;;21.20;99.90;;;;;;6303521;22;19995;-85
2022/08/14 05:00:55;;;;;;;9.65;5.25;;;21.30;99.90;;;;;;6276250;22;20010;-82
2022/08/14 05:03:27;;;;;;;10.68;5.20;;;21.40;99.90;;;;;;6303135;22;20016;-84
2022/08/14 05:05:55;;;;;;;8.30;5.32;;;21.40;99.90;;;;;;6303598;22;20440;-84
2022/08/14 05:08:22;;;;;;;8.55;5.15;;;21.40;99.90;;;;;;6303271;22;20003;-85
2022/08/14 05:10:53;;;;;;;14.35;5.95;;;21.40;99.90;;;;;;6303113;22;20000;-85
2022/08/14 05:13:20;;;;;;;11.05;6.15;;;21.40;99.90;;;;;;6304980;22;20003;-84
2022/08/14 05:15:46;;;;;;;10.85;5.90;;;21.20;99.90;;;;;;6310056;22;19995;-82
2022/08/14 05:18:15;;;;;;;11.48;6.30;;;21.20;99.90;;;;;;6312367;22;20010;-85
2022/08/14 05:20:47;;;;;;;9.02;5.93;;;21.00;99.90;;;;;;6310599;22;20010;-85
2022/08/14 05:23:14;;;;;;;9.52;5.90;;;21.00;99.90;;;;;;6304035;22;20007;-81
2022/08/14 05:25:41;;;;;;;14.18;6.10;;;21.10;99.90;;;;;;6276780;22;20006;-87
2022/08/14 05:28:21;;;;;;;10.73;6.10;;;21.10;99.90;;;;;;6276247;22;20003;-81
2022/08/14 05:30:59;;;;;;;9.20;5.65;;;21.10;99.90;;;;;;6303709;22;20003;-85
2022/08/14 05:33:27;;;;;;;11.30;6.30;;;21.10;99.90;;;;;;6302049;22;20006;-84
2022/08/14 05:35:59;;;;;;;12.02;8.02;;;21.10;99.90;;;;;;6303010;22;20029;-90
2022/08/14 05:38:36;;;;;;;11.90;6.93;;;21.00;99.90;;;;;;6303260;22;20041;-83
2022/08/14 05:41:04;;;;;;;11.25;6.68;;;21.00;99.90;;;;;;6303050;22;19999;-87
2022/08/14 05:43:30;;;;;;;12.85;6.65;;;20.90;99.90;;;;;;6276042;22;20014;-81
2022/08/14 05:46:00;;;;;;;10.63;6.65;;;20.90;99.90;;;;;;6303716;22;20101;-88
2022/08/14 05:48:27;;;;;;;12.18;6.60;;;21.00;99.90;;;;;;6303698;22;20015;-89
2022/08/14 05:50:54;;;;;;;11.18;6.10;;;21.10;99.90;;;;;;6276241;22;20445;-90
2022/08/14 05:53:21;;;;;;;8.13;6.15;;;21.10;99.90;;;;;;6303247;22;20010;-88
2022/08/14 05:55:48;;;;;;;12.07;6.47;;;21.20;99.90;;;;;;6303363;22;19999;-89
2022/08/14 05:58:13;;;;;;;10.63;6.55;;;21.20;99.90;;;;;;6276902;22;20006;-86
2022/08/14 06:00:41;;;;;;;10.93;6.93;;;21.30;99.90;;;;;;6303018;22;20004;-89
2022/08/14 06:03:10;;;;;;;8.68;6.15;;;21.30;99.90;;;;;;6303018;22;20011;-86
2022/08/14 06:05:36;;;;;;;8.52;6.45;;;21.50;99.90;;;;;;6303378;22;20031;-88
2022/08/14 06:08:02;;;;;;;14.60;9.32;;;21.20;99.90;;;;;;6302774;22;20010;-82
2022/08/14 06:10:30;;;;;;;247.55;39.63;;;20.90;99.90;;;;;;6276066;22;20007;-88
2022/08/14 06:13:02;;;;;;;10.80;6.35;;;21.20;99.90;;;;;;6303060;22;20003;-89
2022/08/14 06:15:27;;;;;;;8.90;6.10;;;21.10;99.90;;;;;;6275462;22;20004;-85
2022/08/14 06:17:56;;;;;;;11.80;6.53;;;21.00;99.90;;;;;;6302463;22;20025;-88
2022/08/14 06:20:23;;;;;;;13.80;6.78;;;20.90;99.90;;;;;;6275131;22;19999;-88
2022/08/14 06:22:49;;;;;;;11.40;6.78;;;21.00;99.90;;;;;;6303049;22;20007;-87
2022/08/14 06:25:16;;;;;;;12.15;7.18;;;21.00;99.90;;;;;;6303844;22;20022;-86
2022/08/14 06:27:46;;;;;;;10.80;6.80;;;21.10;99.90;;;;;;6276213;22;20060;-87
2022/08/14 06:30:18;;;;;;;12.75;7.57;;;20.80;99.90;;;;;;6276290;22;20009;-83
2022/08/14 06:32:44;;;;;;;8.98;7.30;;;20.90;99.90;;;;;;6276164;22;20445;-86
2022/08/14 06:35:11;;;;;;;10.40;7.22;;;20.80;99.90;;;;;;6275110;22;20010;-84
2022/08/14 06:37:51;;;;;;;10.75;7.20;;;20.80;99.90;;;;;;6275105;22;20664;-87
2022/08/14 06:40:28;;;;;;;14.98;7.28;;;20.90;99.90;;;;;;6303543;22;20011;-86
2022/08/14 06:43:04;;;;;;;9.63;7.68;;;20.80;99.90;;;;;;6274630;22;20015;-85
2022/08/14 06:45:35;;;;;;;12.40;7.95;;;20.70;99.90;;;;;;6274443;22;20086;-84
2022/08/14 06:48:01;;;;;;;13.13;8.57;;;20.70;99.90;;;;;;6301133;22;20011;-85
2022/08/14 06:50:28;;;;;;;13.93;7.90;;;20.80;99.90;;;;;;6302128;22;20008;-85
2022/08/14 06:52:54;;;;;;;15.93;7.57;;;20.70;99.90;;;;;;6274775;22;20037;-85
2022/08/14 06:55:20;;;;;;;13.38;8.23;;;20.90;99.90;;;;;;6302122;22;19995;-84
2022/08/14 06:57:48;;;;;;;11.80;7.82;;;21.50;99.90;;;;;;6303004;22;20009;-86
2022/08/14 07:00:19;;;;;;;13.65;7.72;;;20.90;99.90;;;;;;6275847;22;20344;-88
2022/08/14 07:05:45;;;;;;;12.23;7.80;;;20.90;99.90;;;;;;6301954;22;20045;-88
2022/08/14 07:08:12;;;;;;;12.82;7.75;;;21.20;99.90;;;;;;6301529;22;20006;-87
2022/08/14 07:10:38;;;;;;;12.07;7.55;;;21.20;99.90;;;;;;6274608;22;20203;-87
2022/08/14 07:13:04;;;;;;;12.30;8.80;;;21.80;99.90;;;;;;6301969;22;19999;-85
2022/08/14 07:15:32;;;;;;;12.13;8.45;;;21.30;99.90;;;;;;6301880;22;20000;-84
2022/08/14 07:17:58;;;;;;;16.03;8.03;;;22.30;99.90;;;;;;6301749;22;19996;-85
2022/08/14 07:20:26;;;;;;;10.77;7.30;;;21.50;99.90;;;;;;6301574;22;20233;-85
2022/08/14 07:22:57;;;;;;;9.80;7.50;;;21.50;99.90;;;;;;6301739;22;20046;-85
2022/08/14 07:25:26;;;;;;;10.95;7.93;;;21.60;99.90;;;;;;6302221;22;20442;-88
2022/08/14 07:27:52;;;;;;;11.48;7.57;;;21.60;99.90;;;;;;6274664;22;20141;-86
2022/08/14 07:30:18;;;;;;;11.30;7.57;;;21.60;99.90;;;;;;6275756;22;20058;-85
2022/08/14 07:32:43;;;;;;;12.77;7.90;;;21.60;99.90;;;;;;6274292;22;20014;-87
2022/08/14 07:35:09;;;;;;;12.25;7.75;;;21.60;99.90;;;;;;6301369;22;20042;-87
2022/08/14 07:37:35;;;;;;;12.82;8.20;;;21.70;99.90;;;;;;6301775;22;20003;-87
2022/08/14 07:40:02;;;;;;;8.98;7.53;;;21.60;99.90;;;;;;6274535;22;20402;-86
2022/08/14 07:42:31;;;;;;;9.10;7.77;;;21.80;99.90;;;;;;6274643;22;20026;-88
2022/08/14 07:44:57;;;;;;;8.57;7.75;;;21.70;99.90;;;;;;6276064;22;20283;-86
2022/08/14 07:47:23;;;;;;;12.43;8.02;;;21.80;99.90;;;;;;6303664;22;19999;-87
2022/08/14 07:50:01;;;;;;;12.15;7.78;;;21.70;99.90;;;;;;6277359;22;20007;-86
2022/08/14 07:52:28;;;;;;;14.98;8.13;;;21.80;99.90;;;;;;6304077;22;20005;-86
2022/08/14 07:54:53;;;;;;;10.18;7.57;;;22.00;99.90;;;;;;6303128;22;19999;-86
2022/08/14 07:57:19;;;;;;;11.02;8.13;;;22.00;99.90;;;;;;6277187;22;19999;-86
2022/08/14 07:59:46;;;;;;;10.75;8.23;;;21.80;99.90;;;;;;6303656;22;20048;-86
2022/08/14 08:02:14;;;;;;;12.60;8.02;;;21.80;99.90;;;;;;6276353;22;20022;-87
2022/08/14 08:04:42;;;;;;;;;;;21.90;99.90;;;;;;6310322;22;19999;-87
2022/08/14 08:07:08;;;;;;;11.82;8.10;;;21.70;99.90;;;;;;6316907;22;20327;-86
2022/08/14 08:09:35;;;;;;;9.07;7.70;;;21.50;99.90;;;;;;6285090;22;20060;-88
2022/08/14 08:12:03;;;;;;;10.43;8.07;;;21.60;99.90;;;;;;6303586;22;20003;-85
2022/08/14 08:14:30;;;;;;;12.23;8.15;;;21.70;99.90;;;;;;6302924;22;20003;-87
2022/08/14 08:16:56;;;;;;;9.48;7.80;;;21.50;99.90;;;;;;6303474;22;19995;-87
2022/08/14 08:19:23;;;;;;;9.88;8.07;;;21.50;99.90;;;;;;6276619;22;20018;-86
2022/08/14 08:21:53;;;;;;;8.43;7.10;;;21.70;99.90;;;;;;6276181;22;20064;-86
2022/08/14 08:24:19;;;;;;;10.70;7.63;;;21.90;99.90;;;;;;6277393;22;20091;-86
2022/08/14 08:26:45;;;;;;;11.27;7.32;;;21.70;99.90;;;;;;6276077;22;20035;-85
2022/08/14 08:29:18;;;;;;;11.48;7.78;;;21.70;99.90;;;;;;6276532;22;20050;-86
2022/08/14 08:31:51;;;;;;;12.75;7.35;;;21.70;99.90;;;;;;6303865;22;20308;-85
2022/08/14 08:34:18;;;;;;;11.60;7.80;;;21.80;99.90;;;;;;6303938;22;19995;-85
2022/08/14 08:36:44;;;;;;;11.65;8.73;;;21.80;99.90;;;;;;6276249;22;20018;-85
2022/08/14 08:39:10;;;;;;;10.90;7.85;;;21.80;99.90;;;;;;6303580;22;20003;-86
2022/08/14 08:41:46;;;;;;;14.80;7.93;;;21.80;99.90;;;;;;6303293;22;20489;-85
2022/08/14 08:44:12;;;;;;;11.27;8.10;;;21.80;99.90;;;;;;6302572;22;20003;-86
2022/08/14 08:46:38;;;;;;;17.40;8.70;;;21.80;99.90;;;;;;6303645;22;20004;-86
2022/08/14 08:49:05;;;;;;;14.25;8.98;;;21.70;99.90;;;;;;6299261;22;20011;-86
2022/08/14 08:51:34;;;;;;;12.52;8.23;;;21.70;99.90;;;;;;6273033;22;20008;-86
2022/08/14 08:54:00;;;;;;;12.95;9.60;;;21.70;99.90;;;;;;6302338;22;20004;-86
2022/08/14 08:56:36;;;;;;;10.07;8.60;;;21.80;99.90;;;;;;6302396;22;20332;-86
2022/08/14 08:59:03;;;;;;;13.05;8.57;;;21.80;99.90;;;;;;6302148;22;20049;-86
2022/08/14 09:01:29;;;;;;;14.18;8.63;;;21.80;99.90;;;;;;6301923;22;20403;-86
2022/08/14 09:04:04;;;;;;;10.75;8.60;;;21.80;99.90;;;;;;6302354;22;20053;-86
2022/08/14 09:06:30;;;;;;;11.23;8.63;;;21.90;99.90;;;;;;6302296;22;20023;-86
2022/08/14 09:08:56;;;;;;;12.70;8.25;;;21.90;99.90;;;;;;6302623;22;20436;-86
2022/08/14 09:11:23;;;;;;;10.52;8.60;;;21.90;99.90;;;;;;6276252;22;19999;-85
2022/08/14 09:13:51;;;;;;;13.23;9.55;;;22.00;99.90;;;;;;6304050;22;20336;-90
2022/08/14 09:16:20;;;;;;;12.70;8.75;;;21.80;99.90;;;;;;6303247;22;19995;-89
2022/08/14 09:18:46;;;;;;;9.45;8.45;;;21.60;99.90;;;;;;6302651;22;20494;-88
2022/08/14 09:21:12;;;;;;;8.98;8.02;;;21.60;99.90;;;;;;6303091;22;19999;-90
2022/08/14 09:23:39;;;;;;;11.00;8.48;;;21.60;99.90;;;;;;6303242;22;20011;-89
2022/08/14 09:26:05;;;;;;;13.13;9.97;;;21.70;99.90;;;;;;6303244;22;20056;-89
2022/08/14 09:28:31;;;;;;;10.52;9.30;;;21.70;99.90;;;;;;6303305;22;20226;-86
2022/08/14 09:30:58;;;;;;;12.05;9.50;;;21.70;99.90;;;;;;6302977;22;20383;-86
2022/08/14 09:33:50;;;;;;;15.15;9.77;;;21.70;99.90;;;;;;6276321;22;20080;-87
2022/08/14 09:36:34;;;;;;;10.38;9.30;;;21.50;99.90;;;;;;6302898;22;20007;-84
2022/08/14 09:39:21;;;;;;;12.38;9.68;;;21.50;99.90;;;;;;6303186;22;20034;-87
2022/08/14 09:42:11;;;;;;;11.17;9.43;;;22.00;99.90;;;;;;6302672;22;20007;-87
2022/08/14 09:45:12;;;;;;;13.63;9.23;;;21.50;99.90;;;;;;6302588;22;20218;-87
2022/08/14 09:47:45;;;;;;;13.60;9.65;;;21.60;99.90;;;;;;6240445;22;20007;-87
2022/08/14 09:50:31;;;;;;;13.95;10.00;;;21.70;99.90;;;;;;6303011;22;20006;-87
2022/08/14 09:53:05;;;;;;;12.73;9.32;;;21.40;99.90;;;;;;6303012;22;20014;-87
2022/08/14 09:55:34;;;;;;;12.45;8.63;;;21.20;99.90;;;;;;6274778;22;19999;-86
2022/08/14 09:58:13;;;;;;;13.93;10.13;;;21.40;99.90;;;;;;6302471;22;20371;-86
2022/08/14 10:01:00;;;;;;;12.80;10.00;;;21.40;99.90;;;;;;6302205;22;20023;-85
2022/08/14 10:03:35;;;;;;;11.70;9.35;;;21.40;99.90;;;;;;6302989;22;20386;-86
2022/08/14 10:06:26;;;;;;;13.27;10.40;;;21.50;99.90;;;;;;6302531;22;19995;-85
2022/08/14 10:09:03;;;;;;;14.52;10.27;;;21.50;99.90;;;;;;6303416;22;20038;-84
2022/08/14 10:11:34;;;;;;;12.17;10.87;;;21.40;99.90;;;;;;6302225;22;20440;-84
2022/08/14 10:14:18;;;;;;;14.07;11.80;;;21.40;99.90;;;;;;6303080;22;20217;-85
2022/08/14 10:16:46;;;;;;;12.77;9.65;;;21.30;99.90;;;;;;6302365;22;20022;-84
2022/08/14 10:19:14;;;;;;;13.55;11.73;;;21.20;99.90;;;;;;6302203;22;20335;-83
2022/08/14 10:21:42;;;;;;;14.48;11.38;;;21.00;99.90;;;;;;6301750;22;20495;-84
2022/08/14 10:24:23;;;;;;;17.00;11.10;;;21.10;99.90;;;;;;6274885;22;20011;-84
2022/08/14 10:26:54;;;;;;;13.40;10.00;;;21.10;99.90;;;;;;6302521;22;20035;-88
2022/08/14 10:29:30;;;;;;;13.85;10.23;;;21.20;99.90;;;;;;6301439;22;20074;-85
2022/08/14 10:32:00;;;;;;;12.02;9.15;;;21.30;99.90;;;;;;6276032;22;20013;-86
2022/08/14 10:34:38;;;;;;;11.45;8.90;;;21.40;99.90;;;;;;6303419;22;20030;-86
2022/08/14 10:37:10;;;;;;;14.15;8.98;;;21.40;99.90;;;;;;6302923;22;20003;-84
2022/08/14 10:39:40;;;;;;;12.27;9.02;;;21.40;99.90;;;;;;6302625;22;20002;-85
2022/08/14 10:42:10;;;;;;;15.70;8.68;;;21.40;99.90;;;;;;6302934;22;20011;-84
2022/08/14 10:44:44;;;;;;;11.82;8.57;;;21.30;99.90;;;;;;6302690;22;19995;-86
2022/08/14 10:47:11;;;;;;;12.15;8.38;;;21.30;99.90;;;;;;6276234;22;20007;-85
2022/08/14 10:49:46;;;;;;;13.80;8.80;;;21.40;99.90;;;;;;6316945;22;20008;-83
2022/08/14 10:52:20;;;;;;;14.02;8.60;;;21.40;99.90;;;;;;6319681;22;20063;-86
2022/08/14 10:54:47;;;;;;;9.93;8.48;;;21.40;99.90;;;;;;6325866;22;20010;-84
2022/08/14 10:57:25;;;;;;;16.37;9.73;;;21.50;99.90;;;;;;6283230;22;20013;-83
2022/08/14 10:59:59;;;;;;;13.30;9.40;;;21.50;99.90;;;;;;6303781;22;19999;-86
2022/08/14 11:02:30;;;;;;;12.13;8.63;;;21.60;99.90;;;;;;6304141;22;20015;-85
2022/08/14 11:04:58;;;;;;;12.02;8.82;;;21.60;99.90;;;;;;6303803;22;19999;-86
2022/08/14 11:07:24;;;;;;;12.27;8.95;;;21.70;99.90;;;;;;6275081;22;20389;-85
2022/08/14 11:10:03;;;;;;;13.93;9.00;;;21.80;99.90;;;;;;6302419;22;20033;-86
2022/08/14 11:12:46;;;;;;;10.85;8.40;;;21.80;99.90;;;;;;6303412;22;20006;-86
2022/08/14 11:15:21;;;;;;;13.38;9.80;;;21.80;99.90;;;;;;6302010;22;20078;-86
2022/08/14 11:17:49;;;;;;;12.32;9.00;;;21.90;99.90;;;;;;6275121;22;20003;-86
2022/08/14 11:20:21;;;;;;;10.43;8.45;;;21.80;99.90;;;;;;6301943;22;20006;-86
2022/08/14 11:22:53;;;;;;;11.80;9.13;;;21.90;99.90;;;;;;6274758;22;20007;-86
2022/08/14 11:25:22;;;;;;;14.50;9.65;;;21.80;99.90;;;;;;6274669;22;20003;-86
2022/08/14 11:27:50;;;;;;;11.63;8.95;;;21.60;99.90;;;;;;6302381;22;20005;-85
2022/08/14 11:30:18;;;;;;;11.68;8.45;;;21.70;99.90;;;;;;6301297;22;19999;-85
2022/08/14 11:32:49;;;;;;;11.05;9.10;;;21.80;99.90;;;;;;6301856;22;20002;-85
2022/08/14 11:35:21;;;;;;;12.57;9.40;;;22.00;99.90;;;;;;6301862;22;20003;-85
2022/08/14 11:37:55;;;;;;;13.15;10.13;;;21.80;99.90;;;;;;6302185;22;20465;-85
2022/08/14 11:40:23;;;;;;;15.15;9.60;;;21.90;99.90;;;;;;6302050;22;20221;-87
2022/08/14 11:42:54;;;;;;;10.95;8.50;;;21.80;99.90;;;;;;6301981;22;20469;-86
2022/08/14 11:45:20;;;;;;;12.73;9.48;;;21.80;99.90;;;;;;6274767;22;20030;-86
2022/08/14 11:47:46;;;;;;;15.25;9.00;;;21.70;99.90;;;;;;6302063;22;20010;-85
2022/08/14 11:50:22;;;;;;;14.88;8.40;;;21.50;99.90;;;;;;6302275;22;20000;-86
2022/08/14 11:52:47;;;;;;;13.25;8.93;;;21.50;99.90;;;;;;6301938;22;20053;-85
2022/08/14 11:55:14;;;;;;;11.93;8.73;;;21.50;99.90;;;;;;6301322;22;20074;-85
2022/08/14 11:57:43;;;;;;;12.07;8.23;;;21.70;99.90;;;;;;6301405;22;20029;-85
2022/08/14 12:00:18;;;;;;;11.65;7.75;;;21.80;99.90;;;;;;6301194;22;19999;-83
2022/08/14 12:02:55;;;;;;;10.55;8.13;;;21.90;99.90;;;;;;6301435;22;20313;-85
2022/08/14 12:05:38;;;;;;;13.80;8.60;;;22.00;99.90;;;;;;6301811;22;20003;-86
2022/08/14 12:08:06;;;;;;;14.02;8.98;;;21.80;99.90;;;;;;6274367;22;20007;-85
2022/08/14 12:10:36;;;;;;;14.38;9.20;;;21.60;99.90;;;;;;6302231;22;20443;-85
2022/08/14 12:13:17;;;;;;;13.70;8.82;;;21.20;99.90;;;;;;6302831;22;20462;-86
2022/08/14 12:15:45;;;;;;;10.38;8.60;;;21.80;99.90;;;;;;6301654;22;20050;-85
2022/08/14 12:18:11;;;;;;;13.50;9.20;;;22.00;99.90;;;;;;6301464;22;20463;-85
2022/08/14 12:20:41;;;;;;;10.85;7.80;;;22.00;99.90;;;;;;6300740;22;19996;-85
2022/08/14 12:23:23;;;;;;;12.55;8.95;;;21.80;99.90;;;;;;6301778;22;20015;-87
2022/08/14 12:25:49;;;;;;;13.85;8.57;;;21.80;99.90;;;;;;6294355;22;20022;-85
2022/08/14 12:28:15;;;;;;;16.30;9.27;;;21.70;99.90;;;;;;6301829;22;20003;-87
2022/08/14 12:30:47;;;;;;;12.85;8.68;;;21.60;99.90;;;;;;6274408;22;20003;-86
2022/08/14 12:33:29;;;;;;;10.82;8.52;;;21.80;99.90;;;;;;6302981;22;19999;-86
2022/08/14 12:35:57;;;;;;;11.35;8.93;;;21.90;99.90;;;;;;6303229;22;20003;-87
2022/08/14 12:38:37;;;;;;;12.65;8.15;;;22.00;99.90;;;;;;6303830;22;20120;-87
2022/08/14 12:41:19;;;;;;;13.15;9.07;;;22.00;99.90;;;;;;6277365;22;20000;-87
2022/08/14 12:43:46;;;;;;;15.88;9.55;;;22.10;99.90;;;;;;6303596;22;20034;-86
2022/08/14 12:46:23;;;;;;;14.55;8.73;;;22.20;99.90;;;;;;6303869;22;20454;-86
2022/08/14 12:48:50;;;;;;;14.03;9.67;;;22.20;99.90;;;;;;6276330;22;20455;-87
2022/08/14 12:51:19;;;;;;;21.63;8.80;;;22.20;99.90;;;;;;6303812;22;20121;-87
2022/08/14 12:53:45;;;;;;;15.82;9.50;;;22.20;99.90;;;;;;6303805;22;20427;-88
2022/08/14 12:56:12;;;;;;;18.17;9.20;;;22.20;99.90;;;;;;6276287;22;20010;-86
2022/08/14 12:58:41;;;;;;;13.13;9.25;;;22.30;99.90;;;;;;6303841;22;20000;-88
2022/08/14 13:01:07;;;;;;;13.90;9.43;;;22.20;99.90;;;;;;6276258;22;20456;-87
2022/08/14 13:03:35;;;;;;;13.40;9.25;;;22.30;99.90;;;;;;6304814;22;20027;-88